createdAt,value
2022-11-14T00:00:38.638Z,17.33
2022-11-14T00:03:26.874Z,16.90
2022-11-14T00:06:13.848Z,16.57
2022-11-14T00:09:01.380Z,15.57
2022-11-14T00:11:49.528Z,15.27
2022-11-14T00:14:36.603Z,15.80
2022-11-14T00:17:23.571Z,15.53
2022-11-14T00:20:12.790Z,15.87
2022-11-14T00:22:59.542Z,15.03
2022-11-14T00:25:46.876Z,14.73
2022-11-14T00:28:35.155Z,14.70
2022-11-14T00:31:22.445Z,16.47
2022-11-14T00:34:10.057Z,16.23
2022-11-14T00:36:57.013Z,16.03
2022-11-14T00:39:43.786Z,17.13
2022-11-14T00:42:30.843Z,16.37
2022-11-14T00:45:19.488Z,16.90
2022-11-14T00:48:06.494Z,16.73
2022-11-14T00:50:53.359Z,17.67
2022-11-14T00:53:40.208Z,17.37
2022-11-14T00:56:27.588Z,17.50
2022-11-14T00:59:17.594Z,19.43
2022-11-14T01:02:06.384Z,17.53
2022-11-14T01:04:53.717Z,17.23
2022-11-14T01:07:40.691Z,17.77
2022-11-14T01:10:27.722Z,17.63
2022-11-14T01:13:15.375Z,16.97
2022-11-14T01:16:02.966Z,16.63
2022-11-14T01:18:51.381Z,15.03
2022-11-14T01:21:38.143Z,15.07
2022-11-14T01:24:25.075Z,15.50
2022-11-14T01:27:12.023Z,17.60
2022-11-14T01:29:58.882Z,16.37
2022-11-14T01:32:46.055Z,16.00
2022-11-14T01:35:34.888Z,16.10
2022-11-14T01:38:22.093Z,16.77
2022-11-14T01:41:09.299Z,18.00
2022-11-14T01:43:56.525Z,16.70
2022-11-14T01:46:46.929Z,16.63
2022-11-14T01:49:37.589Z,16.90
2022-11-14T01:52:30.177Z,14.37
2022-11-14T01:55:16.990Z,13.83
2022-11-14T01:58:04.680Z,14.50
2022-11-14T02:00:51.801Z,14.10
2022-11-14T02:03:41.458Z,14.40
2022-11-14T02:06:31.681Z,14.53
2022-11-14T02:09:19.818Z,13.13
2022-11-14T02:12:09.839Z,13.70
2022-11-14T02:14:58.457Z,14.37
2022-11-14T02:17:45.704Z,13.67
2022-11-14T02:20:36.183Z,13.43
2022-11-14T02:23:27.839Z,14.07
2022-11-14T02:26:17.347Z,14.13
2022-11-14T02:29:04.671Z,14.27
2022-11-14T02:31:51.472Z,13.47
2022-11-14T02:34:38.035Z,14.23
2022-11-14T02:37:26.292Z,13.60
2022-11-14T02:40:13.431Z,13.47
2022-11-14T02:43:00.460Z,14.47
2022-11-14T02:45:47.589Z,14.37
2022-11-14T02:48:34.413Z,13.87
2022-11-14T02:51:21.325Z,13.93
2022-11-14T02:54:09.746Z,13.80
2022-11-14T02:56:56.673Z,13.27
2022-11-14T02:59:43.602Z,15.37
2022-11-14T03:02:30.459Z,15.43
2022-11-14T03:05:17.266Z,14.20
2022-11-14T03:08:04.340Z,15.47
2022-11-14T03:10:52.316Z,14.13
2022-11-14T03:13:39.235Z,14.60
2022-11-14T03:16:26.257Z,13.87
2022-11-14T03:19:12.931Z,13.47
2022-11-14T03:21:59.536Z,13.87
2022-11-14T03:24:46.210Z,13.87
2022-11-14T03:27:34.045Z,15.00
2022-11-14T03:30:20.899Z,14.00
2022-11-14T03:33:07.795Z,13.97
2022-11-14T03:35:54.782Z,14.13
2022-11-14T03:38:41.354Z,14.30
2022-11-14T03:41:28.473Z,15.73
2022-11-14T03:44:16.595Z,14.23
2022-11-14T03:47:03.702Z,14.07
2022-11-14T03:49:50.374Z,14.73
2022-11-14T03:52:37.066Z,13.80
2022-11-14T03:55:23.584Z,14.20
2022-11-14T03:58:10.279Z,15.20
2022-11-14T04:00:58.608Z,14.33
2022-11-14T04:03:45.630Z,15.37
2022-11-14T04:06:32.830Z,15.37
2022-11-14T04:09:19.387Z,14.63
2022-11-14T04:12:10.037Z,15.20
2022-11-14T04:14:59.788Z,15.63
2022-11-14T04:17:48.363Z,16.67
2022-11-14T04:20:35.252Z,17.33
2022-11-14T04:23:22.346Z,17.70
2022-11-14T04:26:09.431Z,18.17
2022-11-14T04:28:56.415Z,19.43
2022-11-14T04:31:43.131Z,19.90
2022-11-14T04:34:31.647Z,19.63
2022-11-14T04:37:18.187Z,18.70
2022-11-14T04:40:05.815Z,18.13
2022-11-14T04:42:52.707Z,19.73
2022-11-14T04:45:39.089Z,19.60
2022-11-14T04:48:25.829Z,18.07
2022-11-14T04:51:13.955Z,18.93
2022-11-14T04:54:01.014Z,17.63
2022-11-14T04:56:47.967Z,18.00
2022-11-14T04:59:34.647Z,18.70
2022-11-14T05:02:21.723Z,18.50
2022-11-14T05:05:09.287Z,20.47
2022-11-14T05:07:57.309Z,18.73
2022-11-14T05:10:45.481Z,20.47
2022-11-14T05:13:32.567Z,19.47
2022-11-14T05:16:19.557Z,21.07
2022-11-14T05:19:06.611Z,20.17
2022-11-14T05:21:54.494Z,18.40
2022-11-14T05:24:42.817Z,18.33
2022-11-14T05:27:30.640Z,19.17
2022-11-14T05:30:17.837Z,19.40
2022-11-14T05:33:04.641Z,20.20
2022-11-14T05:35:51.568Z,17.80
2022-11-14T05:38:38.656Z,18.00
2022-11-14T05:41:26.793Z,17.43
2022-11-14T05:44:13.862Z,17.23
2022-11-14T05:47:00.671Z,17.53
2022-11-14T05:49:47.588Z,16.80
2022-11-14T05:52:34.467Z,17.50
2022-11-14T05:55:24.878Z,17.07
2022-11-14T05:58:13.556Z,15.80
2022-11-14T06:01:05.021Z,16.33
2022-11-14T06:03:52.162Z,16.40
2022-11-14T06:06:39.567Z,16.57
2022-11-14T06:09:26.327Z,15.90
2022-11-14T06:12:13.226Z,16.70
2022-11-14T06:15:01.327Z,16.43
2022-11-14T06:17:47.997Z,17.70
2022-11-14T06:20:34.776Z,16.73
2022-11-14T06:23:24.718Z,17.40
2022-11-14T06:26:19.782Z,16.57
2022-11-14T06:29:07.647Z,16.53
2022-11-14T06:31:55.712Z,15.53
2022-11-14T06:34:42.504Z,16.03
2022-11-14T06:37:33.426Z,17.70
2022-11-14T06:40:20.810Z,15.97
2022-11-14T06:43:08.112Z,17.37
2022-11-14T06:45:55.441Z,17.23
2022-11-14T06:48:44.993Z,17.67
2022-11-14T06:51:31.724Z,17.70
2022-11-14T06:54:18.580Z,16.67
2022-11-14T06:57:05.445Z,16.47
2022-11-14T06:59:52.624Z,17.97
2022-11-14T07:02:39.579Z,19.67
2022-11-14T07:05:53.026Z,18.10
2022-11-14T07:08:39.943Z,17.40
2022-11-14T07:11:30.157Z,17.97
2022-11-14T07:14:16.772Z,16.97
2022-11-14T07:17:03.402Z,16.87
2022-11-14T07:19:50.340Z,16.10
2022-11-14T07:22:38.653Z,17.17
2022-11-14T07:25:25.341Z,19.07
2022-11-14T07:28:12.406Z,19.40
2022-11-14T07:30:59.173Z,17.93
2022-11-14T07:33:47.154Z,17.37
2022-11-14T07:36:34.128Z,15.63
2022-11-14T07:39:22.447Z,15.83
2022-11-14T07:42:09.004Z,15.83
2022-11-14T07:44:55.984Z,14.90
2022-11-14T07:47:43.014Z,15.50
2022-11-14T07:50:31.313Z,14.73
2022-11-14T07:53:18.532Z,15.23
2022-11-14T07:56:10.750Z,14.27
2022-11-14T07:58:57.883Z,14.80
2022-11-14T08:01:44.710Z,15.93
2022-11-14T08:04:31.594Z,14.90
2022-11-14T08:07:18.663Z,16.13
2022-11-14T08:10:06.055Z,16.00
2022-11-14T08:13:25.175Z,17.20
2022-11-14T08:16:13.263Z,19.47
2022-11-14T08:19:01.489Z,23.93
2022-11-14T08:21:48.320Z,26.40
2022-11-14T08:24:35.661Z,27.03
2022-11-14T08:27:22.210Z,20.53
2022-11-14T08:30:12.038Z,21.40
2022-11-14T08:32:59.179Z,19.23
2022-11-14T08:35:45.864Z,18.63
2022-11-14T08:38:33.774Z,16.33
2022-11-14T08:41:20.756Z,17.13
2022-11-14T08:44:07.681Z,18.00
2022-11-14T08:46:55.812Z,18.50
2022-11-14T08:49:42.456Z,16.23
2022-11-14T08:52:28.922Z,19.00
2022-11-14T08:55:15.810Z,18.13
2022-11-14T08:58:02.583Z,17.43
2022-11-14T09:00:51.999Z,18.47
2022-11-14T09:03:40.381Z,17.37
2022-11-14T09:06:27.325Z,18.30
2022-11-14T09:09:14.332Z,21.17
2022-11-14T09:12:00.982Z,20.63
2022-11-14T09:14:47.732Z,17.30
2022-11-14T09:17:35.329Z,16.43
2022-11-14T09:20:28.525Z,19.33
2022-11-14T09:23:19.644Z,18.53
2022-11-14T09:26:06.548Z,16.97
2022-11-14T09:28:53.295Z,15.83
2022-11-14T09:31:40.167Z,20.90
2022-11-14T09:34:26.869Z,18.77
2022-11-14T09:37:15.312Z,16.53
2022-11-14T09:40:01.946Z,20.60
2022-11-14T09:43:03.856Z,16.30
2022-11-14T09:45:53.364Z,17.07
2022-11-14T09:48:40.819Z,16.73
2022-11-14T09:51:32.387Z,17.03
2022-11-14T09:54:24.101Z,16.13
2022-11-14T09:57:17.469Z,17.77
2022-11-14T10:00:08.042Z,16.70
2022-11-14T10:03:08.628Z,16.43
2022-11-14T10:06:13.791Z,17.10
2022-11-14T10:09:30.410Z,13.90
2022-11-14T10:12:24.650Z,14.53
2022-11-14T10:15:23.365Z,15.67
2022-11-14T10:18:37.533Z,14.83
2022-11-14T10:21:36.447Z,15.33
2022-11-14T10:24:42.009Z,14.83
2022-11-14T10:27:34.610Z,14.87
2022-11-14T10:30:21.533Z,27.13
2022-11-14T10:33:22.051Z,17.23
2022-11-14T10:36:16.463Z,17.43
2022-11-14T10:39:11.926Z,15.00
2022-11-14T10:42:07.628Z,17.30
2022-11-14T10:45:03.941Z,15.57
2022-11-14T10:47:55.294Z,14.60
2022-11-14T10:50:49.975Z,19.27
2022-11-14T10:53:46.828Z,14.77
2022-11-14T10:56:33.969Z,17.53
2022-11-14T10:59:20.979Z,13.87
2022-11-14T11:02:09.894Z,12.23
2022-11-14T11:05:12.821Z,13.30
2022-11-14T11:08:42.103Z,16.20
2022-11-14T11:11:31.064Z,14.73
2022-11-14T11:14:19.279Z,17.13
2022-11-14T11:17:29.581Z,14.47
2022-11-14T11:20:32.384Z,14.47
2022-11-14T11:23:23.015Z,14.07
2022-11-14T11:26:18.466Z,15.50
2022-11-14T11:29:08.882Z,12.07
2022-11-14T11:31:57.968Z,12.30
2022-11-14T11:34:46.778Z,13.37
2022-11-14T11:37:36.791Z,14.17
2022-11-14T11:40:26.536Z,17.60
2022-11-14T11:46:33.257Z,20.33
2022-11-14T11:49:24.839Z,14.17
2022-11-14T11:52:21.073Z,14.20
2022-11-14T11:55:18.026Z,14.13
2022-11-14T11:58:07.667Z,16.03
2022-11-14T12:00:55.931Z,14.43
2022-11-14T12:03:44.203Z,12.63
2022-11-14T12:06:39.972Z,15.90
2022-11-14T12:10:08.257Z,13.23
2022-11-14T12:13:01.037Z,14.80
2022-11-14T12:15:58.567Z,12.93
2022-11-14T12:19:11.112Z,11.90
2022-11-14T12:22:13.039Z,13.20
2022-11-14T12:25:26.355Z,12.77
2022-11-14T12:28:53.611Z,12.47
2022-11-14T12:31:41.322Z,12.60
2022-11-14T12:34:32.756Z,11.13
2022-11-14T12:37:25.150Z,13.00
2022-11-14T12:40:25.454Z,12.53
2022-11-14T12:43:35.990Z,11.77
2022-11-14T12:46:23.219Z,12.43
2022-11-14T12:49:38.450Z,13.00
2022-11-14T12:52:48.777Z,12.20
2022-11-14T12:56:13.033Z,13.07
2022-11-14T12:59:16.626Z,14.23
2022-11-14T13:02:26.903Z,13.30
2022-11-14T13:05:24.539Z,13.30
2022-11-14T13:08:23.404Z,13.83
2022-11-14T13:11:50.300Z,13.83
2022-11-14T13:15:08.144Z,14.07
2022-11-14T13:18:23.112Z,13.93
2022-11-14T13:21:45.376Z,13.70
2022-11-14T13:25:17.663Z,15.30
2022-11-14T13:28:37.754Z,15.37
2022-11-14T13:31:27.089Z,14.63
2022-11-14T13:34:41.437Z,14.67
2022-11-14T13:37:42.053Z,16.43
2022-11-14T13:40:36.020Z,15.37
2022-11-14T13:43:31.208Z,14.40
2022-11-14T13:46:33.187Z,14.33
2022-11-14T13:49:33.900Z,15.57
2022-11-14T13:52:20.971Z,15.20
2022-11-14T13:55:08.638Z,14.63
2022-11-14T13:58:08.851Z,15.67
2022-11-14T14:01:10.948Z,14.97
2022-11-14T14:04:21.590Z,15.63
2022-11-14T14:07:15.771Z,16.57
2022-11-14T14:10:10.678Z,16.03
2022-11-14T14:13:11.123Z,16.00
2022-11-14T14:16:07.173Z,15.00
2022-11-14T14:19:06.557Z,16.30
2022-11-14T14:22:02.843Z,17.67
2022-11-14T14:24:56.528Z,17.63
2022-11-14T14:27:55.741Z,16.93
2022-11-14T14:30:42.720Z,17.60
2022-11-14T14:33:30.191Z,17.10
2022-11-14T14:36:26.427Z,18.83
2022-11-14T14:39:18.917Z,17.10
2022-11-14T14:42:12.485Z,18.63
2022-11-14T14:45:00.227Z,20.77
2022-11-14T14:47:50.974Z,19.17
2022-11-14T14:50:40.927Z,19.23
2022-11-14T14:53:30.958Z,19.13
2022-11-14T14:56:20.574Z,18.93
2022-11-14T14:59:22.058Z,19.07
2022-11-14T15:02:15.770Z,22.63
2022-11-14T15:05:03.220Z,22.20
2022-11-14T15:07:52.117Z,19.47
2022-11-14T15:10:41.972Z,21.13
2022-11-14T15:13:30.364Z,18.70
2022-11-14T15:16:17.234Z,17.77
2022-11-14T15:19:05.116Z,19.07
2022-11-14T15:22:05.585Z,18.97
2022-11-14T15:25:19.463Z,18.03
2022-11-14T15:28:17.893Z,18.17
2022-11-14T15:31:06.197Z,20.67
2022-11-14T15:34:04.306Z,18.43
2022-11-14T15:37:24.586Z,22.23
2022-11-14T15:40:19.738Z,17.87
2022-11-14T15:43:38.947Z,21.93
2022-11-14T15:46:43.440Z,21.03
2022-11-14T15:49:30.714Z,16.77
2022-11-14T15:52:22.145Z,22.20
2022-11-14T15:55:17.749Z,25.17
2022-11-14T15:58:27.167Z,18.90
2022-11-14T16:01:18.348Z,17.47
2022-11-14T16:04:05.457Z,17.03
2022-11-14T16:06:52.064Z,16.30
2022-11-14T16:09:38.915Z,16.70
2022-11-14T16:12:25.695Z,18.10
2022-11-14T16:15:12.834Z,20.90
2022-11-14T16:18:01.226Z,17.90
2022-11-14T16:20:47.845Z,16.10
2022-11-14T16:23:34.734Z,15.93
2022-11-14T16:26:22.088Z,15.07
2022-11-14T16:29:09.116Z,16.43
2022-11-14T16:31:56.339Z,17.13
2022-11-14T16:34:44.356Z,15.10
2022-11-14T16:37:30.959Z,15.77
2022-11-14T16:40:21.471Z,14.83
2022-11-14T16:43:14.355Z,15.43
2022-11-14T16:46:04.783Z,13.60
2022-11-14T16:48:52.217Z,13.37
2022-11-14T16:51:48.480Z,14.17
2022-11-14T16:54:36.308Z,15.40
2022-11-14T16:57:25.666Z,15.23
2022-11-14T17:00:14.443Z,15.27
2022-11-14T17:03:01.403Z,13.33
2022-11-14T17:05:50.595Z,16.50
2022-11-14T17:08:39.226Z,15.80
2022-11-14T17:11:26.995Z,17.43
2022-11-14T17:14:13.590Z,15.27
2022-11-14T17:17:02.903Z,15.50
2022-11-14T17:19:49.770Z,17.17
2022-11-14T17:22:36.374Z,15.60
2022-11-14T17:25:25.081Z,14.57
2022-11-14T17:28:12.023Z,15.60
2022-11-14T17:30:58.446Z,16.30
2022-11-14T17:33:50.930Z,15.70
2022-11-14T17:36:37.766Z,14.30
2022-11-14T17:39:24.862Z,14.23
2022-11-14T17:42:12.965Z,20.97
2022-11-14T17:45:00.984Z,16.43
2022-11-14T17:47:47.551Z,14.10
2022-11-14T17:50:37.671Z,16.73
2022-11-14T17:53:24.873Z,15.97
2022-11-14T17:56:18.331Z,15.90
2022-11-14T17:59:06.581Z,15.67
2022-11-14T18:01:55.968Z,18.80
2022-11-14T18:04:42.900Z,14.80
2022-11-14T18:07:33.083Z,14.53
2022-11-14T18:10:20.014Z,15.23
2022-11-14T18:13:08.246Z,16.27
2022-11-14T18:15:56.564Z,17.43
2022-11-14T18:18:43.978Z,16.17
2022-11-14T18:21:30.814Z,16.80
2022-11-14T18:24:17.381Z,16.60
2022-11-14T18:27:04.360Z,16.73
2022-11-14T18:29:51.150Z,22.23
2022-11-14T18:32:39.435Z,19.83
2022-11-14T18:35:26.676Z,18.50
2022-11-14T18:38:13.558Z,22.87
2022-11-14T18:41:01.326Z,22.60
2022-11-14T18:43:49.032Z,19.93
2022-11-14T18:46:37.617Z,22.63
2022-11-14T18:49:28.310Z,18.73
2022-11-14T18:52:17.560Z,17.53
2022-11-14T18:55:05.433Z,20.87
2022-11-14T18:57:52.326Z,20.93
2022-11-14T19:00:38.926Z,19.40
2022-11-14T19:03:25.790Z,21.10
2022-11-14T19:06:14.570Z,23.23
2022-11-14T19:09:05.544Z,22.10
2022-11-14T19:12:12.207Z,22.13
2022-11-14T19:14:59.200Z,20.43
2022-11-14T19:17:48.508Z,20.07
2022-11-14T19:20:35.383Z,22.53
2022-11-14T19:23:23.382Z,48.57
2022-11-14T19:26:10.583Z,51.17
2022-11-14T19:29:00.420Z,36.20
2022-11-14T19:31:47.147Z,28.43
2022-11-14T19:34:34.178Z,27.07
2022-11-14T19:37:21.261Z,24.37
2022-11-14T19:40:11.063Z,26.93
2022-11-14T19:43:01.859Z,33.50
2022-11-14T19:45:49.461Z,26.60
2022-11-14T19:48:40.759Z,23.17
2022-11-14T19:51:28.134Z,25.97
2022-11-14T19:54:14.875Z,23.60
2022-11-14T19:57:03.186Z,23.73
2022-11-14T19:59:49.773Z,20.90
2022-11-14T20:02:39.503Z,21.40
2022-11-14T20:05:25.993Z,26.80
2022-11-14T20:08:12.780Z,21.87
2022-11-14T20:11:00.820Z,22.30
2022-11-14T20:13:49.474Z,20.43
2022-11-14T20:16:37.914Z,21.47
2022-11-14T20:19:24.691Z,22.60
2022-11-14T20:22:11.677Z,23.30
2022-11-14T20:24:58.524Z,25.57
2022-11-14T20:27:45.082Z,21.53
2022-11-14T20:30:32.984Z,21.03
2022-11-14T20:33:19.765Z,23.43
2022-11-14T20:36:08.921Z,25.10
2022-11-14T20:38:57.251Z,25.40
2022-11-14T20:41:44.440Z,22.53
2022-11-14T20:44:30.890Z,23.73
2022-11-14T20:47:19.062Z,23.47
2022-11-14T20:50:06.768Z,26.30
2022-11-14T20:52:53.358Z,28.10
2022-11-14T20:55:40.218Z,25.20
2022-11-14T20:58:26.972Z,27.07
2022-11-14T21:01:13.844Z,24.70
2022-11-14T21:04:01.959Z,24.27
2022-11-14T21:06:49.021Z,28.27
2022-11-14T21:09:36.413Z,34.53
2022-11-14T21:12:23.340Z,26.20
2022-11-14T21:15:11.154Z,24.63
2022-11-14T21:17:57.822Z,25.40
2022-11-14T21:20:45.839Z,27.87
2022-11-14T21:23:32.556Z,26.60
2022-11-14T21:26:21.168Z,28.57
2022-11-14T21:29:09.317Z,27.50
2022-11-14T21:31:56.035Z,24.00
2022-11-14T21:34:42.698Z,28.30
2022-11-14T21:37:31.056Z,30.17
2022-11-14T21:40:17.970Z,25.30
2022-11-14T21:43:04.887Z,29.67
2022-11-14T21:45:58.771Z,28.97
2022-11-14T21:48:47.567Z,32.87
2022-11-14T21:51:34.173Z,34.40
2022-11-14T21:54:22.518Z,35.17
2022-11-14T21:57:10.443Z,29.53
2022-11-14T21:59:57.307Z,27.23
2022-11-14T22:03:01.753Z,29.17
2022-11-14T22:05:48.592Z,27.03
2022-11-14T22:08:35.459Z,25.67
2022-11-14T22:11:24.239Z,25.37
2022-11-14T22:14:10.832Z,27.03
2022-11-14T22:16:58.973Z,26.83
2022-11-14T22:19:45.860Z,24.23
2022-11-14T22:22:33.083Z,23.73
2022-11-14T22:25:19.860Z,24.73
2022-11-14T22:28:07.905Z,26.20
2022-11-14T22:31:06.283Z,27.33
2022-11-14T22:33:54.994Z,27.87
2022-11-14T22:36:41.589Z,24.90
2022-11-14T22:39:28.134Z,23.13
2022-11-14T22:42:15.100Z,24.20
2022-11-14T22:45:03.487Z,28.43
2022-11-14T22:47:50.169Z,26.67
2022-11-14T22:50:37.039Z,25.37
2022-11-14T22:53:24.938Z,27.93
2022-11-14T22:56:12.521Z,28.77
2022-11-14T22:59:00.606Z,27.20
2022-11-14T23:01:48.607Z,25.60
2022-11-14T23:04:35.072Z,24.93
2022-11-14T23:07:21.970Z,25.77
2022-11-14T23:10:09.951Z,22.80
2022-11-14T23:12:59.015Z,24.57
2022-11-14T23:15:49.263Z,21.77
2022-11-14T23:18:37.692Z,23.33
2022-11-14T23:21:26.958Z,22.20
2022-11-14T23:24:15.698Z,22.37
2022-11-14T23:27:02.486Z,20.77
2022-11-14T23:29:49.048Z,20.40
2022-11-14T23:32:35.860Z,19.97
2022-11-14T23:35:24.182Z,22.40
2022-11-14T23:38:11.020Z,20.73
2022-11-14T23:40:59.764Z,20.67
2022-11-14T23:43:47.366Z,20.20
2022-11-14T23:46:34.133Z,21.10
2022-11-14T23:49:20.998Z,20.83
2022-11-14T23:52:09.072Z,20.30
2022-11-14T23:54:55.816Z,18.93
2022-11-14T23:57:42.672Z,20.37
